Airfield :
LOGIN :

Register | Disclaimer

   EN    FR    IT 

 










Legend :    VFR   Marginal VFR   IFR   Intensive IFR   Very Intensive IFR
Visi :
Ceiling :
>= 8 km
>= 3000ft
5 to 8 km
1000 to 3000 ft
1500m to 5 km
500 to 1000 ft
800 to 1500m
200 to 500 ft
< 800m
< 200 ft
Symbols :   Thunderstorms  Fog  Heavy snow  Heavy precipitations  Wind > 20 kt
SIGMETs :     Misc.  Thunderstorms  Icing  Turbulence  Mountain Waves  Volcanic Ashes







- Airport Elevation : 76 ft
- IATA code : KID


ESMK - Kristianstad

CURRENT METAR :
  • 251150Z 26015KT 240V300 CAVOK 07/M05 Q0999

EXPIRED METARs :
  • 251120Z 24016KT CAVOK 08/M04 Q0998
  • 251050Z 26014KT 9999 FEW048 08/M03 Q0998
  • 251020Z 27013KT 9999 SCT048 07/M03 Q0998
  • 250950Z 23015KT 9999 FEW040 SCT045 08/M02 Q0998
  • 250920Z 25012KT 220V280 9999 SCT037 07/M02 Q0999

TAF TAF ESMK
Valid from the 25 at 12:00 until the 25 at 19:00 UTC


251056Z 2512/2519 25012KT 9999 SCT035
TEMPO 2512/2515 25015G28KT
TEMPO 2515/2518 26018G30KT SHRA BKN015CB
No reported NOTAMs for that airfield.
1 SIGMET reported for the Sweden FIR (ESAA) :
 
SIGMET 1  cancelation
ESAA SIGMET 2 VALID 251050/251226 ESSA
ESAA SWEDEN FIR CNL SIGMET 1 250836/251226=



MET'MAP, your aeronautical weather chart ! - Copyright ORBIFLY December 2007 - Disclaimer

ORBIFLY MET'MAP TEAM :

Programming & Development : Alexandra Zaïnal
Concept & Development : Baudouin d'Aumeries
Co-Development & Prog : Marc-Olivier Méhu
Technical & hardware support : Manuel Goepfert

Contact : metmap@orbifly.com




SOURCES & CREDITS :

   NOAA